Time;durP1;ratioP1;P1;durP2;ratioP2;P2;SDS_P1;SDS_P2;PMS_P1;PMS_P2;Temp;Humidity;BMP_temperature;BMP_pressure;BME280_temperature;BME280_humidity;BME280_pressure;Samples;Min_cycle;Max_cycle;Signal;HPM_P1;HPM_P2
2021/12/29 00:01:38;;;;;;;80.07;61.80;;;;;;;1.50;100.00;99611.00;4981467;28;20053;-87
2021/12/29 00:04:03;;;;;;;82.60;61.73;;;;;;;1.49;100.00;99601.72;4980563;28;20096;-86
2021/12/29 00:06:28;;;;;;;77.77;62.13;;;;;;;1.42;100.00;99615.31;4979773;28;20022;-87
2021/12/29 00:08:55;;;;;;;79.50;61.10;;;;;;;1.42;100.00;99607.69;4996357;28;20026;-86
2021/12/29 00:11:21;;;;;;;81.53;61.95;;;;;;;1.38;100.00;99626.31;4981352;28;20029;-86
2021/12/29 00:13:46;;;;;;;82.85;62.83;;;;;;;1.44;100.00;99636.41;4996401;28;20026;-86
2021/12/29 00:16:12;;;;;;;80.23;59.83;;;;;;;1.42;100.00;99633.88;4981144;28;20096;-86
2021/12/29 00:18:37;;;;;;;80.80;63.70;;;;;;;1.30;100.00;99615.41;4996893;28;20037;-87
2021/12/29 00:21:05;;;;;;;76.17;61.03;;;;;;;1.54;100.00;99640.50;4979772;28;20065;-87
2021/12/29 00:23:30;;;;;;;83.47;63.13;;;;;;;1.50;100.00;99635.53;4996342;28;20442;-86
2021/12/29 00:25:55;;;;;;;78.97;62.63;;;;;;;1.50;100.00;99646.47;4996937;28;20058;-86
2021/12/29 00:28:21;;;;;;;77.00;61.23;;;;;;;1.34;100.00;99629.75;4996349;28;20029;-86
2021/12/29 00:30:47;;;;;;;76.60;62.17;;;;;;;1.44;100.00;99642.28;4980818;28;20034;-86
2021/12/29 00:33:12;;;;;;;82.37;61.57;;;;;;;1.44;100.00;99636.41;4980848;28;20041;-86
2021/12/29 00:35:38;;;;;;;85.53;63.80;;;;;;;1.47;100.00;99646.50;4997043;28;20126;-87
2021/12/29 00:38:09;;;;;;;82.60;63.15;;;;;;;1.37;100.00;99639.81;4981268;28;20022;-87
2021/12/29 00:40:36;;;;;;;82.78;62.28;;;;;;;1.39;100.00;99655.88;4997335;28;20050;-86
2021/12/29 00:43:01;;;;;;;;;;;;;;;1.50;100.00;99665.94;4980946;28;20026;-87
2021/12/29 00:45:27;;;;;;;89.35;63.55;;;;;;;1.48;100.00;99665.94;4979901;28;19910;-87
2021/12/29 00:47:53;;;;;;;86.47;61.90;;;;;;;1.51;100.00;99675.19;4996426;28;20034;-86
2021/12/29 00:50:19;;;;;;;83.28;64.05;;;;;;;1.46;100.00;99682.84;4979251;28;20096;-86
2021/12/29 00:52:45;;;;;;;89.35;64.07;;;;;;;1.43;100.00;99665.13;4979532;28;20031;-87
2021/12/29 00:55:12;;;;;;;82.20;61.17;;;;;;;1.65;100.00;99691.13;4979029;28;20034;-86
2021/12/29 00:57:37;;;;;;;83.10;62.17;;;;;;;1.52;100.00;99680.25;4978902;28;20471;-86
2021/12/29 01:00:06;;;;;;;81.13;61.83;;;;;;;1.70;100.00;99702.06;4979735;28;20046;-86
2021/12/29 01:02:31;;;;;;;83.20;62.17;;;;;;;1.80;100.00;99718.06;4995220;28;20030;-86
2021/12/29 01:04:57;;;;;;;78.07;61.60;;;;;;;1.76;100.00;99713.84;4995673;28;20033;-86
2021/12/29 01:07:22;;;;;;;82.07;62.50;;;;;;;1.67;100.00;99701.25;4995670;28;20026;-86
2021/12/29 01:09:48;;;;;;;84.03;60.73;;;;;;;1.79;100.00;99717.19;4979245;28;20022;-86
2021/12/29 01:12:15;;;;;;;79.33;60.80;;;;;;;1.80;100.00;99716.34;4979570;28;20033;-85
2021/12/29 01:14:43;;;;;;;88.40;63.00;;;;;;;1.76;100.00;99718.91;4978871;28;20484;-85
2021/12/29 01:17:09;;;;;;;78.53;60.83;;;;;;;1.74;100.00;99731.59;4979854;28;20125;-86
2021/12/29 01:19:34;;;;;;;80.30;61.17;;;;;;;1.63;100.00;99744.38;4995057;28;20061;-85
2021/12/29 01:22:01;;;;;;;75.40;60.33;;;;;;;1.67;100.00;99747.75;4979472;28;20088;-86
2021/12/29 01:24:28;;;;;;;83.80;63.03;;;;;;;1.72;100.00;99747.69;4994765;28;20494;-86
2021/12/29 01:26:54;;;;;;;85.32;61.47;;;;;;;1.82;100.00;99754.38;4995294;28;20038;-86
2021/12/29 01:29:20;;;;;;;;;;;;;;;1.86;100.00;99761.09;4979894;28;20092;-86
2021/12/29 01:31:45;;;;;;;78.47;61.15;;;;;;;1.73;100.00;99769.66;4978689;28;19913;-86
2021/12/29 01:34:11;;;;;;;74.88;60.95;;;;;;;1.69;100.00;99768.00;4982860;28;20042;-86
2021/12/29 01:36:37;;;;;;;79.60;61.87;;;;;;;1.70;100.00;99767.97;4986852;28;20030;-85
2021/12/29 01:39:05;;;;;;;74.43;61.28;;;;;;;1.71;100.00;99772.19;5000897;28;20010;-85
2021/12/29 01:41:31;;;;;;;72.82;60.20;;;;;;;1.79;100.00;99784.81;5017092;28;20015;-83
2021/12/29 01:43:56;;;;;;;80.93;62.67;;;;;;;1.85;100.00;99774.63;5000986;28;20034;-86
2021/12/29 01:46:22;;;;;;;83.00;61.97;;;;;;;1.67;100.00;99769.69;5017168;28;20053;-85
2021/12/29 01:48:47;;;;;;;77.67;62.03;;;;;;;1.73;100.00;99779.78;5017274;28;20025;-85
2021/12/29 01:51:16;;;;;;;82.90;61.13;;;;;;;1.68;100.00;99784.06;5017287;28;20046;-85
2021/12/29 01:53:48;;;;;;;84.25;60.42;;;;;;;1.80;100.00;99797.50;5001239;28;20018;-84
2021/12/29 01:56:13;;;;;;;79.55;60.45;;;;;;;1.75;100.00;99796.69;5001536;28;20029;-84
2021/12/29 01:58:40;;;;;;;82.57;61.40;;;;;;;1.84;100.00;99817.75;5000878;28;20014;-85
2021/12/29 02:01:05;;;;;;;83.85;63.05;;;;;;;1.86;100.00;99819.44;5000570;28;20014;-84
2021/12/29 02:03:30;;;;;;;82.03;62.23;;;;;;;1.84;100.00;99812.69;5000487;28;20022;-85
2021/12/29 02:05:56;;;;;;;91.90;63.33;;;;;;;1.58;100.00;99801.03;5017014;28;20011;-84
2021/12/29 02:08:23;;;;;;;87.10;62.70;;;;;;;1.73;100.00;99803.44;5009372;28;20030;-85
2021/12/29 02:10:48;;;;;;;85.80;62.20;;;;;;;1.67;100.00;99800.97;5003340;28;20057;-86
2021/12/29 02:13:14;;;;;;;80.00;62.33;;;;;;;1.62;100.00;99787.47;5005929;28;20022;-86
2021/12/29 02:15:40;;;;;;;96.60;64.63;;;;;;;1.75;100.00;99808.50;5009919;28;20064;-85
2021/12/29 02:18:13;;;;;;;91.67;64.97;;;;;;;1.68;100.00;99807.72;5010823;28;20278;-87
2021/12/29 02:20:45;;;;;;;86.22;61.90;;;;;;;1.75;100.00;99828.78;4994198;28;20030;-85
2021/12/29 02:23:15;;;;;;;84.50;63.13;;;;;;;1.66;100.00;99819.56;4994373;28;20496;-87
2021/12/29 02:25:50;;;;;;;87.03;63.08;;;;;;;1.75;100.00;99828.78;5007830;28;20026;-85
2021/12/29 02:28:18;;;;;;;89.50;63.00;;;;;;;1.78;100.00;99833.84;4994870;28;20077;-86
2021/12/29 02:30:45;;;;;;;93.22;62.80;;;;;;;1.77;100.00;99833.00;4992657;28;20026;-87
2021/12/29 02:33:13;;;;;;;94.97;64.85;;;;;;;1.72;100.00;99834.75;4993780;28;20484;-86
2021/12/29 02:35:40;;;;;;;93.22;63.03;;;;;;;1.61;100.00;99842.41;4985973;28;20089;-86
2021/12/29 02:38:09;;;;;;;82.95;60.05;;;;;;;1.67;100.00;99838.16;4983576;28;20519;-86
2021/12/29 02:40:35;;;;;;;93.63;63.22;;;;;;;1.81;100.00;99849.91;4983469;28;20042;-86
2021/12/29 02:43:01;;;;;;;96.32;62.97;;;;;;;1.66;100.00;99849.16;4982199;28;20023;-86
2021/12/29 02:45:27;;;;;;;94.40;63.47;;;;;;;1.58;100.00;99837.34;4998006;28;20610;-87
2021/12/29 02:47:52;;;;;;;90.63;64.22;;;;;;;1.65;100.00;99855.06;4982066;28;20026;-86
2021/12/29 02:50:18;;;;;;;99.53;63.47;;;;;;;1.51;100.00;99863.63;4982262;28;20022;-86
2021/12/29 02:52:44;;;;;;;92.47;64.70;;;;;;;1.66;100.00;99870.28;4981941;28;20030;-87
2021/12/29 02:55:11;;;;;;;92.75;62.15;;;;;;;1.68;100.00;99877.88;4997952;28;20117;-86
2021/12/29 02:57:36;;;;;;;90.65;61.78;;;;;;;1.75;100.00;99884.56;4981029;28;20450;-86
2021/12/29 03:00:03;;;;;;;94.10;63.03;;;;;;;1.71;100.00;99883.75;4981904;28;20030;-87
2021/12/29 03:02:28;;;;;;;91.82;62.65;;;;;;;1.64;100.00;99882.13;4989821;28;20034;-86
2021/12/29 03:04:57;;;;;;;105.40;64.00;;;;;;;1.58;100.00;99872.84;5018038;28;20015;-85
2021/12/29 03:07:22;;;;;;;91.05;61.33;;;;;;;1.59;100.00;99868.59;5019022;28;20022;-85
2021/12/29 03:09:47;;;;;;;98.63;64.40;;;;;;;1.69;100.00;99890.53;5019367;28;20034;-85
2021/12/29 03:12:13;;;;;;;92.30;61.03;;;;;;;1.47;100.00;99877.13;5019387;28;20021;-82
2021/12/29 03:14:49;;;;;;;91.27;63.10;;;;;;;1.71;100.00;99909.13;5003082;28;20014;-84
2021/12/29 03:17:15;;;;;;;92.90;62.47;;;;;;;1.60;100.00;99885.50;5003416;28;20098;-85
2021/12/29 03:19:40;;;;;;;95.87;63.93;;;;;;;1.75;100.00;99905.72;5019028;28;20022;-85
2021/12/29 03:22:05;;;;;;;90.53;60.50;;;;;;;1.69;100.00;99915.06;5019252;28;20010;-85
2021/12/29 03:24:30;;;;;;;85.40;61.40;;;;;;;1.66;100.00;99915.06;5018278;28;20030;-86
2021/12/29 03:26:56;;;;;;;92.43;61.90;;;;;;;1.60;100.00;99921.00;5018543;28;20022;-85
2021/12/29 03:29:21;;;;;;;100.97;63.40;;;;;;;1.60;100.00;99926.91;5002722;28;20025;-85
2021/12/29 03:31:46;;;;;;;106.63;63.90;;;;;;;1.51;100.00;99914.31;5002239;28;20034;-86
2021/12/29 03:34:12;;;;;;;93.63;61.63;;;;;;;1.58;100.00;99932.84;5017727;28;20050;-86
2021/12/29 03:36:37;;;;;;;92.83;60.27;;;;;;;1.65;100.00;99933.66;5009482;28;20026;-85
2021/12/29 03:39:04;;;;;;;111.37;63.73;;;;;;;1.43;100.00;99913.47;4987585;28;20042;-86
2021/12/29 03:41:29;;;;;;;103.35;62.03;;;;;;;1.44;100.00;99922.75;4982574;28;20124;-86
2021/12/29 03:43:54;;;;;;;94.30;63.47;;;;;;;1.60;100.00;99937.03;4997508;28;20475;-85
2021/12/29 03:46:20;;;;;;;95.63;62.00;;;;;;;1.57;100.00;99934.53;4981428;28;20372;-88
2021/12/29 03:48:46;;;;;;;98.03;62.83;;;;;;;1.60;100.00;99934.50;4980792;28;20112;-86
2021/12/29 03:51:11;;;;;;;92.10;62.20;;;;;;;1.74;100.00;99944.59;4996666;28;20304;-87
2021/12/29 03:53:37;;;;;;;97.60;61.40;;;;;;;1.75;100.00;99950.50;4980532;28;20093;-86
2021/12/29 03:56:03;;;;;;;86.55;61.33;;;;;;;1.67;100.00;99948.03;4980213;28;20488;-86
2021/12/29 03:58:29;;;;;;;88.90;62.22;;;;;;;1.62;100.00;99958.19;4980610;28;20349;-87
2021/12/29 04:01:02;;;;;;;85.32;63.63;;;;;;;1.55;100.00;99953.16;4979925;28;20367;-87
2021/12/29 04:03:27;;;;;;;88.43;62.53;;;;;;;1.49;100.00;99938.78;4979755;28;20026;-86
2021/12/29 04:05:53;;;;;;;86.37;61.60;;;;;;;1.59;100.00;99943.00;4995636;28;20050;-86
2021/12/29 04:08:18;;;;;;;92.17;62.50;;;;;;;1.71;100.00;99961.53;4979535;28;20065;-87
2021/12/29 04:10:44;;;;;;;89.30;62.27;;;;;;;1.77;100.00;99964.88;4995950;28;20022;-86
2021/12/29 04:13:09;;;;;;;87.17;59.47;;;;;;;1.71;100.00;99953.91;4979568;28;20034;-86
2021/12/29 04:15:36;;;;;;;89.53;61.43;;;;;;;1.76;100.00;99958.09;4996173;28;20026;-86
2021/12/29 04:18:04;;;;;;;82.40;60.65;;;;;;;1.60;100.00;99959.03;4980603;28;20398;-86
2021/12/29 04:23:16;;;;;;;91.82;64.57;;;;;;;1.56;100.00;99955.66;4995324;28;20029;-86
2021/12/29 04:25:45;;;;;;;78.23;58.57;;;;;;;1.57;100.00;99949.72;4979224;28;20026;-86
2021/12/29 04:28:15;;;;;;;81.85;59.83;;;;;;;1.73;100.00;99977.56;4980099;28;20042;-86
2021/12/29 04:30:42;;;;;;;76.28;58.42;;;;;;;1.74;100.00;99974.19;4979761;28;20019;-86
2021/12/29 04:33:07;;;;;;;84.60;61.72;;;;;;;1.79;100.00;99988.50;4978803;28;20033;-87
2021/12/29 04:35:33;;;;;;;84.30;60.13;;;;;;;1.84;100.00;100003.72;4979745;28;20022;-86
2021/12/29 04:37:58;;;;;;;82.87;60.17;;;;;;;1.63;100.00;99997.88;4978806;28;20034;-86
2021/12/29 04:40:24;;;;;;;85.20;60.90;;;;;;;1.76;100.00;100024.03;4979954;28;20024;-87
2021/12/29 04:42:50;;;;;;;88.27;61.50;;;;;;;1.65;100.00;100019.84;4979724;28;20034;-86
2021/12/29 04:45:15;;;;;;;84.00;60.47;;;;;;;1.75;100.00;100022.34;4987064;28;20033;-86
2021/12/29 04:47:43;;;;;;;89.40;62.45;;;;;;;1.68;100.00;100022.38;5001815;28;20032;-87
2021/12/29 04:50:24;;;;;;;81.82;61.88;;;;;;;1.84;100.00;100046.81;4983676;28;20026;-86
2021/12/29 04:52:54;;;;;;;83.60;62.50;;;;;;;1.90;100.00;100046.81;4980444;28;20030;-87
2021/12/29 04:55:20;;;;;;;108.82;65.82;;;;;;;1.84;100.00;100036.69;5004432;22;20031;-84
2021/12/29 04:57:45;;;;;;;79.77;59.67;;;;;;;1.84;100.00;100046.00;5025736;28;20033;-83
2021/12/29 05:00:11;;;;;;;80.10;60.83;;;;;;;1.77;100.00;100047.72;5008982;28;20028;-82
2021/12/29 05:02:36;;;;;;;83.90;61.47;;;;;;;1.76;100.00;100039.25;5025038;28;20041;-83
2021/12/29 05:05:17;;;;;;;77.87;61.53;;;;;;;1.77;100.00;100040.09;5024558;28;20053;-83
2021/12/29 05:10:27;;;;;;;90.10;62.03;;;;;;;1.81;100.00;100067.13;5025968;28;20045;-83
2021/12/29 05:12:52;;;;;;;94.40;65.60;;;;;;;1.89;100.00;100060.31;5008875;28;20026;-83
2021/12/29 05:15:17;;;;;;;86.67;62.53;;;;;;;1.76;100.00;100046.00;5008884;28;20034;-84
2021/12/29 05:17:43;;;;;;;80.60;60.13;;;;;;;1.83;100.00;100034.16;5013099;28;20030;-83
2021/12/29 05:20:09;;;;;;;88.37;63.07;;;;;;;1.86;100.00;100045.16;5020246;28;20041;-81
2021/12/29 05:22:34;;;;;;;91.38;62.63;;;;;;;1.87;100.00;100036.66;5020456;28;20053;-83
2021/12/29 05:24:59;;;;;;;80.97;61.77;;;;;;;1.82;100.00;100043.47;5008422;28;20041;-82
2021/12/29 05:27:25;;;;;;;81.33;60.87;;;;;;;1.93;100.00;100067.09;5022205;28;20071;-83
2021/12/29 05:29:50;;;;;;;91.40;61.87;;;;;;;1.84;100.00;100062.03;5005371;28;20030;-82
2021/12/29 05:32:15;;;;;;;92.53;62.43;;;;;;;1.77;100.00;100056.16;5020631;28;20030;-84
2021/12/29 05:34:40;;;;;;;90.17;63.07;;;;;;;1.93;100.00;100084.84;5003607;28;20054;-83
2021/12/29 05:37:06;;;;;;;83.83;63.40;;;;;;;1.95;100.00;100089.91;5019035;28;20018;-83
2021/12/29 05:39:31;;;;;;;81.60;62.57;;;;;;;1.97;100.00;100104.28;5008590;28;20026;-82
2021/12/29 05:41:56;;;;;;;84.47;62.10;;;;;;;1.86;100.00;100087.41;5020513;28;20085;-82
2021/12/29 05:44:23;;;;;;;89.87;62.43;;;;;;;1.97;100.00;100103.41;5016216;28;20033;-84
2021/12/29 05:46:48;;;;;;;89.05;63.53;;;;;;;1.96;100.00;100096.69;5023807;28;20022;-83
2021/12/29 05:49:13;;;;;;;86.30;62.27;;;;;;;1.84;100.00;100094.19;5007059;28;20049;-83
2021/12/29 05:51:39;;;;;;;82.97;62.03;;;;;;;1.65;100.00;100091.69;5007592;28;20052;-84
2021/12/29 05:54:04;;;;;;;89.60;62.87;;;;;;;1.89;100.00;100111.03;5007601;28;20028;-84
2021/12/29 05:56:29;;;;;;;82.87;61.63;;;;;;;1.89;100.00;100111.03;5015346;28;20171;-84
2021/12/29 05:58:59;;;;;;;82.60;60.77;;;;;;;1.94;100.00;100119.50;5013679;28;20026;-84
2021/12/29 06:01:25;;;;;;;78.55;60.78;;;;;;;1.87;100.00;100101.78;5019732;28;20081;-83
2021/12/29 06:03:50;;;;;;;89.38;61.65;;;;;;;1.87;100.00;100100.06;5020541;28;20045;-83
2021/12/29 06:06:16;;;;;;;84.57;61.30;;;;;;;1.99;100.00;100117.78;5019276;28;20025;-83
2021/12/29 06:08:41;;;;;;;83.23;61.67;;;;;;;1.97;100.00;100134.72;5036293;28;20086;-83
2021/12/29 06:11:06;;;;;;;84.73;61.40;;;;;;;1.91;100.00;100127.13;5018578;28;20026;-84
2021/12/29 06:13:32;;;;;;;80.80;61.53;;;;;;;1.85;100.00;100109.38;5013042;28;20029;-83
2021/12/29 06:15:57;;;;;;;87.73;62.00;;;;;;;1.88;100.00;100114.47;5016727;28;20030;-83
2021/12/29 06:18:23;;;;;;;83.97;61.97;;;;;;;1.82;100.00;100119.53;5011827;28;20061;-82
2021/12/29 06:20:48;;;;;;;85.07;62.80;;;;;;;1.88;100.00;100134.75;5012679;28;20053;-83
2021/12/29 06:23:13;;;;;;;79.13;62.03;;;;;;;2.00;100.00;100149.06;5011143;28;20391;-84
2021/12/29 06:25:40;;;;;;;89.60;62.80;;;;;;;1.97;100.00;100155.00;5012656;28;20046;-82
2021/12/29 06:28:05;;;;;;;;;;;;;;;1.96;100.00;100148.25;5012977;28;20033;-83
2021/12/29 06:30:31;;;;;;;83.88;62.08;;;;;;;1.95;100.00;100155.84;5016989;28;20337;-83
2021/12/29 06:32:56;;;;;;;96.43;65.10;;;;;;;1.95;100.00;100155.84;5018895;28;20029;-83
2021/12/29 06:35:22;;;;;;;85.43;62.50;;;;;;;1.93;100.00;100158.41;5022834;28;20017;-83
2021/12/29 06:37:47;;;;;;;89.63;60.67;;;;;;;2.02;100.00;100157.53;5023350;28;20029;-82
2021/12/29 06:40:14;;;;;;;83.37;63.33;;;;;;;2.03;100.00;100158.38;5023110;28;20040;-81
2021/12/29 06:42:40;;;;;;;93.90;64.35;;;;;;;1.78;100.00;100149.16;5022713;28;20006;-83
2021/12/29 06:45:06;;;;;;;91.07;64.05;;;;;;;1.93;100.00;100153.31;5023081;28;20056;-82
2021/12/29 06:47:32;;;;;;;83.57;62.05;;;;;;;1.96;100.00;100166.00;5022890;28;20014;-83
2021/12/29 06:49:57;;;;;;;87.03;63.40;;;;;;;1.97;100.00;100172.78;5023041;28;20043;-83
2021/12/29 06:52:23;;;;;;;91.47;62.90;;;;;;;2.01;100.00;100175.31;5023039;28;20045;-83
2021/12/29 06:54:48;;;;;;;86.33;63.43;;;;;;;1.97;100.00;100190.53;5022737;28;20021;-81
2021/12/29 06:57:14;;;;;;;90.10;63.17;;;;;;;1.97;100.00;100167.69;5022612;28;20022;-82
2021/12/29 06:59:39;;;;;;;79.60;61.80;;;;;;;1.96;100.00;100190.53;5023006;28;20022;-82
2021/12/29 07:02:05;;;;;;;91.77;62.67;;;;;;;1.92;100.00;100174.44;5022866;28;20012;-83
2021/12/29 07:04:30;;;;;;;96.60;64.33;;;;;;;1.99;100.00;100200.69;5022762;28;20044;-82
2021/12/29 07:06:56;;;;;;;87.90;63.60;;;;;;;2.03;100.00;100207.41;5038599;28;20041;-82
2021/12/29 07:09:21;;;;;;;83.10;62.60;;;;;;;2.02;100.00;100220.09;5022722;28;20081;-82
2021/12/29 07:11:47;;;;;;;87.47;63.65;;;;;;;2.03;100.00;100222.63;5022519;28;20020;-83
2021/12/29 07:14:13;;;;;;;86.23;62.90;;;;;;;1.90;100.00;100190.53;5022552;28;20018;-83
2021/12/29 07:16:39;;;;;;;84.53;62.67;;;;;;;1.93;100.00;100226.88;5021703;28;20026;-83
2021/12/29 07:19:05;;;;;;;84.35;63.60;;;;;;;2.09;100.00;100235.31;5021499;28;20061;-84
2021/12/29 07:21:30;;;;;;;;;;;;;;;2.10;100.00;100256.44;5021542;28;20029;-82
2021/12/29 07:23:57;;;;;;;90.55;62.83;;;;;;;2.04;100.00;100251.41;5022318;28;19905;-83
2021/12/29 07:26:23;;;;;;;81.60;63.33;;;;;;;2.05;100.00;100273.38;5038906;28;20861;-84
2021/12/29 07:28:48;;;;;;;86.53;63.03;;;;;;;1.86;100.00;100253.13;5022404;28;20032;-83
2021/12/29 07:31:14;;;;;;;84.88;63.40;;;;;;;1.89;100.00;100273.38;5022295;28;20088;-83
2021/12/29 07:33:39;;;;;;;85.13;63.87;;;;;;;1.99;100.00;100282.69;5022101;28;20029;-82
2021/12/29 07:36:04;;;;;;;86.97;63.53;;;;;;;1.98;100.00;100285.22;5019356;28;20026;-84
2021/12/29 07:38:30;;;;;;;85.17;63.33;;;;;;;2.04;100.00;100294.53;5006942;28;20029;-83
2021/12/29 07:40:55;;;;;;;87.70;64.43;;;;;;;2.05;100.00;100298.75;5007941;28;20105;-84
2021/12/29 07:43:21;;;;;;;85.37;61.77;;;;;;;2.03;100.00;100310.59;5009216;28;20048;-83
2021/12/29 07:45:46;;;;;;;78.60;60.43;;;;;;;2.13;100.00;100325.81;5009353;28;20026;-83
2021/12/29 07:48:12;;;;;;;82.83;61.90;;;;;;;2.12;100.00;100328.34;5010566;28;20263;-83
2021/12/29 07:50:37;;;;;;;79.60;61.60;;;;;;;1.92;100.00;100319.03;5012157;28;20028;-83
2021/12/29 07:53:05;;;;;;;79.28;62.38;;;;;;;2.05;100.00;100344.41;5011817;28;20025;-83
2021/12/29 07:55:33;;;;;;;75.85;60.17;;;;;;;2.07;100.00;100342.72;5010212;28;20022;-83
2021/12/29 07:57:59;;;;;;;80.85;62.58;;;;;;;2.20;100.00;100348.66;5011688;28;20049;-83
2021/12/29 08:00:25;;;;;;;84.07;61.50;;;;;;;2.15;100.00;100357.09;5021374;28;20106;-83
2021/12/29 08:02:51;;;;;;;85.97;63.58;;;;;;;2.13;100.00;100347.78;5035572;28;20025;-84
2021/12/29 08:05:17;;;;;;;79.97;60.42;;;;;;;2.03;100.00;100351.19;5016404;28;20034;-84
2021/12/29 08:07:42;;;;;;;77.07;61.13;;;;;;;2.03;100.00;100341.88;5015819;28;20042;-83
2021/12/29 08:10:08;;;;;;;84.17;63.40;;;;;;;2.08;100.00;100349.47;5013813;28;20048;-84
2021/12/29 08:12:34;;;;;;;81.65;61.47;;;;;;;2.12;100.00;100356.25;5011723;28;20030;-84
2021/12/29 08:14:59;;;;;;;83.13;63.73;;;;;;;2.06;100.00;100361.34;5009979;28;20057;-83
2021/12/29 08:17:24;;;;;;;80.97;63.47;;;;;;;2.09;100.00;100371.50;5025089;28;20095;-83
2021/12/29 08:19:50;;;;;;;82.83;62.17;;;;;;;1.97;100.00;100350.34;5009426;28;20036;-83
2021/12/29 08:22:17;;;;;;;86.67;61.80;;;;;;;2.07;100.00;100370.63;5010207;28;20029;-83
2021/12/29 08:24:42;;;;;;;82.80;63.00;;;;;;;2.10;100.00;100363.00;5012719;28;20259;-83
2021/12/29 08:27:08;;;;;;;80.73;60.43;;;;;;;2.21;100.00;100366.38;5010955;28;20060;-84
2021/12/29 08:29:33;;;;;;;83.90;61.60;;;;;;;2.02;100.00;100354.56;5008661;28;20026;-83
2021/12/29 08:31:58;;;;;;;81.47;61.03;;;;;;;2.15;100.00;100362.19;5005950;28;20783;-83
2021/12/29 08:34:24;;;;;;;81.20;61.93;;;;;;;2.12;100.00;100366.41;5020398;28;20026;-83
2021/12/29 08:36:50;;;;;;;90.60;64.97;;;;;;;2.12;100.00;100371.50;5020588;28;20041;-83
2021/12/29 08:39:18;;;;;;;80.40;61.15;;;;;;;2.08;100.00;100350.31;5010583;28;20026;-83
2021/12/29 08:41:45;;;;;;;85.47;64.40;;;;;;;2.24;100.00;100368.94;5010021;28;20025;-83
2021/12/29 08:44:10;;;;;;;89.18;63.60;;;;;;;2.28;100.00;100369.78;5008550;28;20022;-83
2021/12/29 08:46:35;;;;;;;87.47;62.23;;;;;;;2.12;100.00;100359.63;5008797;28;20021;-84
2021/12/29 08:49:01;;;;;;;88.40;62.20;;;;;;;2.12;100.00;100361.34;5010030;28;20037;-83
2021/12/29 08:51:26;;;;;;;87.57;62.77;;;;;;;2.16;100.00;100370.63;5009748;28;20025;-84
2021/12/29 08:53:52;;;;;;;88.23;61.60;;;;;;;2.20;100.00;100377.41;5012898;28;20026;-83
2021/12/29 08:56:18;;;;;;;;;;;;;;;2.17;100.00;100383.31;5016957;28;20014;-83
2021/12/29 08:58:44;;;;;;;86.55;62.40;;;;;;;2.14;100.00;100369.78;5015971;28;19975;-83
2021/12/29 09:01:10;;;;;;;98.90;65.65;;;;;;;2.14;100.00;100364.72;5015958;28;20105;-84
2021/12/29 09:03:35;;;;;;;94.40;64.10;;;;;;;2.02;100.00;100339.34;5012114;28;20053;-83
2021/12/29 09:06:02;;;;;;;91.33;66.17;;;;;;;2.17;100.00;100368.09;5011888;28;20018;-83
2021/12/29 09:08:27;;;;;;;87.35;61.38;;;;;;;2.21;100.00;100390.94;5011272;28;20108;-85
2021/12/29 09:10:53;;;;;;;82.90;62.93;;;;;;;2.21;100.00;100399.38;5011146;28;20049;-83
2021/12/29 09:13:20;;;;;;;86.15;62.95;;;;;;;2.21;100.00;100386.69;5010709;28;20033;-83
2021/12/29 09:15:46;;;;;;;80.68;62.80;;;;;;;2.23;100.00;100395.16;5008885;28;20034;-83
2021/12/29 09:18:11;;;;;;;81.18;63.70;;;;;;;2.16;100.00;100388.38;5009545;28;20517;-85
2021/12/29 09:20:44;;;;;;;85.23;62.30;;;;;;;2.32;100.00;100410.41;5008553;28;20053;-83
2021/12/29 09:23:10;;;;;;;86.07;63.70;;;;;;;2.34;100.00;100406.16;5010276;28;20072;-84
2021/12/29 09:25:37;;;;;;;82.73;62.33;;;;;;;2.36;100.00;100412.09;5009517;28;20157;-85
2021/12/29 09:28:03;;;;;;;89.35;64.70;;;;;;;2.53;100.00;100416.31;5009514;28;20018;-84
2021/12/29 09:30:31;;;;;;;93.25;64.10;;;;;;;2.48;100.00;100412.91;5012022;28;20053;-84
2021/12/29 09:32:57;;;;;;;90.57;64.93;;;;;;;2.39;100.00;100406.16;5011546;28;20080;-84
2021/12/29 09:35:23;;;;;;;87.05;62.15;;;;;;;2.51;100.00;100431.56;5012448;28;20025;-84
2021/12/29 09:37:50;;;;;;;96.13;64.70;;;;;;;2.49;100.00;100433.22;5013756;28;20072;-84
2021/12/29 09:40:17;;;;;;;90.68;63.28;;;;;;;2.37;100.00;100425.63;5016707;28;20082;-83
2021/12/29 09:42:43;;;;;;;91.00;66.07;;;;;;;2.43;100.00;100429.84;5023531;28;20026;-83
2021/12/29 09:45:10;;;;;;;85.07;62.60;;;;;;;2.48;100.00;100430.69;5023845;28;20076;-83
2021/12/29 09:47:36;;;;;;;92.18;65.70;;;;;;;2.53;100.00;100431.56;5020637;28;20471;-84
2021/12/29 09:50:06;;;;;;;91.65;63.85;;;;;;;2.41;100.00;100418.88;5013893;28;20045;-83
2021/12/29 09:52:33;;;;;;;90.70;64.10;;;;;;;2.33;100.00;100424.78;5010980;28;20492;-82
2021/12/29 09:55:04;;;;;;;94.43;63.83;;;;;;;2.32;100.00;100420.56;5012713;28;20030;-83
2021/12/29 09:57:31;;;;;;;87.20;64.43;;;;;;;2.49;100.00;100429.84;5013193;28;20033;-84
2021/12/29 09:59:57;;;;;;;88.47;64.10;;;;;;;2.39;100.00;100423.06;5013409;28;20036;-83
2021/12/29 10:02:22;;;;;;;93.60;63.70;;;;;;;2.53;100.00;100429.84;5021700;28;20010;-83
2021/12/29 10:04:47;;;;;;;93.20;64.90;;;;;;;2.33;100.00;100416.31;5023295;28;20022;-83
2021/12/29 10:07:15;;;;;;;90.90;66.20;;;;;;;2.31;100.00;100401.09;5023564;28;20021;-81
2021/12/29 10:09:40;;;;;;;89.30;65.25;;;;;;;2.54;100.00;100425.63;5023805;28;20029;-83
2021/12/29 10:12:09;;;;;;;95.47;65.53;;;;;;;2.52;100.00;100401.94;5015643;28;20022;-84
2021/12/29 10:14:34;;;;;;;88.13;62.40;;;;;;;2.62;100.00;100431.53;5008584;28;20487;-82
2021/12/29 10:16:59;;;;;;;92.47;64.30;;;;;;;2.59;100.00;100438.31;5010084;28;20043;-83
2021/12/29 10:19:25;;;;;;;95.20;64.57;;;;;;;2.67;100.00;100447.63;5011524;28;20036;-85
2021/12/29 10:21:50;;;;;;;91.93;64.30;;;;;;;2.60;100.00;100445.94;5028345;28;20021;-84
2021/12/29 10:24:19;;;;;;;91.33;65.30;;;;;;;2.73;100.00;100457.75;5012561;28;20029;-84
2021/12/29 10:26:46;;;;;;;89.65;65.05;;;;;;;2.75;100.00;100469.63;5012797;28;20267;-83
2021/12/29 10:29:15;;;;;;;88.78;64.05;;;;;;;2.71;100.00;100462.00;5012182;28;20018;-83
2021/12/29 10:31:52;;;;;;;88.95;64.32;;;;;;;2.67;100.00;100470.50;5011317;28;20022;-83
2021/12/29 10:34:21;;;;;;;86.53;63.67;;;;;;;2.65;100.00;100459.47;5011032;28;20022;-85
2021/12/29 10:36:52;;;;;;;92.20;63.63;;;;;;;2.76;100.00;100464.53;5011041;28;20048;-84
2021/12/29 10:39:21;;;;;;;87.05;64.18;;;;;;;2.75;100.00;100469.63;5011964;28;20403;-84
2021/12/29 10:41:55;;;;;;;89.82;63.50;;;;;;;2.85;100.00;100461.16;5011198;28;20048;-84
2021/12/29 10:44:44;;;;;;;89.53;63.92;;;;;;;2.76;100.00;100461.16;5011795;28;20018;-84
2021/12/29 10:47:25;;;;;;;89.03;63.85;;;;;;;2.68;100.00;100464.53;5018999;28;20017;-83
2021/12/29 10:49:55;;;;;;;86.38;65.03;;;;;;;2.61;100.00;100467.94;5021738;28;20013;-84
2021/12/29 10:52:32;;;;;;;89.05;64.13;;;;;;;2.63;100.00;100468.78;5037960;28;20006;-84
2021/12/29 10:54:58;;;;;;;94.03;63.92;;;;;;;2.44;100.00;100464.56;5014566;28;20088;-84
2021/12/29 10:57:24;;;;;;;92.03;61.35;;;;;;;2.50;100.00;100452.72;5052702;22;20046;-87
2021/12/29 10:59:55;;;;;;;82.47;61.07;;;;;;;2.32;100.00;100434.91;5024638;28;20097;-87
2021/12/29 11:02:31;;;;;;;87.85;62.25;;;;;;;2.49;100.00;100447.63;5041632;28;20079;-87
2021/12/29 11:05:03;;;;;;;85.85;63.05;;;;;;;2.58;100.00;100434.94;5025394;28;20530;-87
2021/12/29 11:07:30;;;;;;;85.65;60.90;;;;;;;2.78;100.00;100459.47;5027922;28;20026;-87
2021/12/29 11:09:55;;;;;;;85.97;62.40;;;;;;;2.73;100.00;100456.94;5026152;28;20021;-86
2021/12/29 11:12:23;;;;;;;85.03;60.77;;;;;;;2.93;100.00;100464.53;5024950;28;20022;-86
2021/12/29 11:14:53;;;;;;;83.13;62.20;;;;;;;2.79;100.00;100451.84;5026104;28;20279;-86
2021/12/29 11:17:25;;;;;;;76.00;60.20;;;;;;;2.88;100.00;100467.06;5039154;28;20093;-86